Cooperstown, North Dakota
Current Conditions -  °F | °C
As of 7:35 PM on Sunday 23 Nov 2014 (Local Time) from KBAC Reporting Station
Light Snow Light Snow  
Wind Chill:   Ceiling: 1400
Heat Index: 18°   Visibility: 10mi
Dew Point: 16°   Wind: 23mph
Humidity: 93%   Direction: 320°NW
Pressure: 29.58"   Gusts: 33mph
Location:  47.44°N, 98.12°W
Report Text: KBAC 240135Z AUTO 32020G29KT 10SM -SN OVC014 M08/M09 A2958 RMK AO2 P0001
Loading
Personal Weather Stations






























Interactive Weather Map New forecast layout! Learn more

10-Day Weather Forecast

Advertisements
Track Severe Weather on mobile